Time;durP1;ratioP1;P1;durP2;ratioP2;P2;SDS_P1;SDS_P2;PMS_P1;PMS_P2;Temp;Humidity;BMP_temperature;BMP_pressure;BME280_temperature;BME280_humidity;BME280_pressure;Samples;Min_cycle;Max_cycle;Signal;HPM_P1;HPM_P2
2022/02/01 00:01:38;;;;;;;8.13;2.30;;;;;;;-145.69;100.00;72895.06;5033203;28;20256;-76
2022/02/01 00:04:08;;;;;;;8.83;3.07;;;;;;;-145.69;100.00;72905.03;5066221;28;20558;-76
2022/02/01 00:06:50;;;;;;;7.27;2.57;;;;;;;-145.69;100.00;72903.03;5075290;28;20202;-76
2022/02/01 00:09:24;;;;;;;10.50;3.23;;;;;;;-145.69;100.00;72895.06;5074816;28;20202;-76
2022/02/01 00:12:05;;;;;;;6.67;2.83;;;;;;;-145.69;100.00;72899.06;5074962;28;20258;-76
2022/02/01 00:14:39;;;;;;;10.10;2.80;;;;;;;-145.69;100.00;72897.06;5074196;28;20234;-76
2022/02/01 00:20:22;;;;;;;6.80;2.60;;;;;;;-145.69;100.00;72899.06;5090929;28;20552;-77
2022/02/01 00:34:01;;;;;;;8.60;2.70;;;;;;;-145.69;100.00;72903.03;5090534;28;20275;-76
2022/02/01 00:36:33;;;;;;;8.23;2.70;;;;;;;-145.69;100.00;72895.06;5089973;28;20259;-77
2022/02/01 00:39:03;;;;;;;11.93;2.60;;;;;;;-145.69;100.00;72899.06;5089091;28;20230;-77
2022/02/01 00:41:31;;;;;;;7.80;2.63;;;;;;;-145.69;100.00;72899.06;5090112;28;20202;-77
2022/02/01 00:44:00;;;;;;;11.20;2.70;;;;;;;-145.69;100.00;72903.03;5089950;28;20195;-78
2022/02/01 00:46:28;;;;;;;8.43;2.57;;;;;;;-145.69;100.00;72909.00;5090008;28;20198;-78
2022/02/01 00:48:55;;;;;;;7.53;2.93;;;;;;;-145.69;100.00;72914.97;5089715;28;20226;-77
2022/02/01 00:51:22;;;;;;;15.87;3.13;;;;;;;-145.69;100.00;72918.97;5089840;28;20208;-77
2022/02/01 00:53:50;;;;;;;4.63;2.63;;;;;;;-145.69;100.00;72918.97;5089790;28;20206;-77
2022/02/01 00:56:16;;;;;;;5.80;2.67;;;;;;;-145.69;100.00;72918.97;5089779;28;20194;-77
2022/02/01 00:58:45;;;;;;;4.80;2.43;;;;;;;-145.69;100.00;72922.94;5089139;28;20322;-77
2022/02/01 01:01:11;;;;;;;10.53;3.20;;;;;;;-145.69;100.00;72916.97;5089884;28;20599;-77
2022/02/01 01:03:38;;;;;;;7.10;2.73;;;;;;;-145.69;100.00;72920.94;5089496;28;20195;-77
2022/02/01 01:06:07;;;;;;;7.83;3.07;;;;;;;-145.69;100.00;72926.91;5089356;28;20289;-78
2022/02/01 01:08:34;;;;;;;8.13;2.73;;;;;;;-145.69;100.00;72924.94;5089183;28;20222;-77
2022/02/01 01:11:03;;;;;;;10.07;3.13;;;;;;;-145.69;100.00;72944.84;5089669;28;20194;-77
2022/02/01 01:13:57;;;;;;;9.13;3.00;;;;;;;-145.69;100.00;72942.84;5089698;28;20205;-77
2022/02/01 01:16:44;;;;;;;6.53;2.33;;;;;;;-145.69;100.00;72948.81;5089585;28;20653;-77
2022/02/01 01:43:53;;;;;;;5.23;2.23;;;;;;;-145.69;100.00;72962.75;5075336;28;20704;-77
2022/02/01 01:54:36;;;;;;;5.07;1.90;;;;;;;-145.69;100.00;72968.72;5074933;28;20274;-77
2022/02/01 01:57:03;;;;;;;5.53;1.93;;;;;;;-145.69;100.00;72986.63;5074966;28;20683;-77
2022/02/01 01:59:31;;;;;;;4.20;1.90;;;;;;;-145.69;100.00;72992.59;5075182;28;20219;-77
2022/02/01 02:01:58;;;;;;;6.20;2.03;;;;;;;-145.69;100.00;72990.63;5074812;28;20201;-77
2022/02/01 02:04:24;;;;;;;10.40;2.40;;;;;;;-145.69;100.00;72998.59;5075033;28;20206;-78
2022/02/01 02:06:51;;;;;;;6.40;2.10;;;;;;;-145.69;100.00;73008.53;5074660;28;20649;-77
2022/02/01 02:09:17;;;;;;;5.93;2.37;;;;;;;-145.69;100.00;73010.53;5074683;28;20195;-77
2022/02/01 02:11:50;;;;;;;6.97;2.60;;;;;;;-145.69;100.00;73022.47;5075066;28;20191;-77
2022/02/01 02:14:18;;;;;;;2.77;1.77;;;;;;;-145.69;100.00;73010.53;5074908;28;20199;-78
2022/02/01 02:16:48;;;;;;;10.17;2.47;;;;;;;-145.69;100.00;73006.53;5074200;28;20222;-77
2022/02/01 02:19:16;;;;;;;5.10;2.13;;;;;;;-145.69;100.00;73010.53;5070300;28;20696;-78
2022/02/01 02:21:48;;;;;;;5.23;2.00;;;;;;;-145.69;100.00;73014.50;5074611;28;20542;-78
2022/02/01 02:24:14;;;;;;;4.63;2.00;;;;;;;-145.69;100.00;73008.53;5074796;28;20213;-77
2022/02/01 02:26:43;;;;;;;7.23;2.50;;;;;;;-145.69;100.00;72994.59;5074390;28;20285;-77
2022/02/01 02:29:10;;;;;;;9.93;2.30;;;;;;;-145.69;100.00;73002.56;5073975;28;20195;-77
2022/02/01 02:31:38;;;;;;;10.23;2.43;;;;;;;-145.69;100.00;72996.59;5063458;28;20653;-77
2022/02/01 02:34:10;;;;;;;9.73;2.30;;;;;;;-145.69;100.00;72998.59;5074121;28;20201;-78
2022/02/01 02:36:43;;;;;;;7.30;2.70;;;;;;;-145.69;100.00;73018.50;5074187;28;20658;-77
2022/02/01 02:39:22;;;;;;;8.63;3.13;;;;;;;-145.69;100.00;73012.53;5074145;28;20226;-77
2022/02/01 02:41:52;;;;;;;6.80;2.20;;;;;;;-145.69;100.00;73028.44;5073521;28;20286;-77
2022/02/01 02:47:05;;;;;;;4.27;2.23;;;;;;;-145.69;100.00;73024.47;5073713;28;20213;-78
2022/02/01 02:49:31;;;;;;;8.00;3.23;;;;;;;-145.69;100.00;73036.41;5074274;28;20221;-78
2022/02/01 02:51:58;;;;;;;10.17;3.03;;;;;;;-145.69;100.00;73030.44;5073959;28;20198;-76
2022/02/01 02:54:27;;;;;;;8.20;3.03;;;;;;;-145.69;100.00;73028.44;5073856;28;20206;-77
2022/02/01 02:56:56;;;;;;;11.13;3.03;;;;;;;-145.69;100.00;73046.34;5073582;28;20199;-78
2022/02/01 02:59:30;;;;;;;15.97;3.43;;;;;;;-145.69;100.00;73042.38;5073720;28;20230;-77
2022/02/01 03:01:57;;;;;;;13.27;4.27;;;;;;;-145.69;100.00;73052.34;5073752;28;20191;-76
2022/02/01 03:04:26;;;;;;;12.40;3.47;;;;;;;-145.69;100.00;73054.31;5074000;28;20608;-77
2022/02/01 03:06:53;;;;;;;15.63;3.40;;;;;;;-145.69;100.00;73056.31;5073869;28;20199;-77
2022/02/01 03:09:23;;;;;;;13.10;3.17;;;;;;;-145.69;100.00;73052.34;5073573;28;20728;-78
2022/02/01 03:11:58;;;;;;;17.77;3.40;;;;;;;-145.69;100.00;73064.28;5073301;28;20256;-77
2022/02/01 03:14:28;;;;;;;13.10;3.50;;;;;;;-145.69;100.00;73068.25;5073707;28;20656;-77
2022/02/01 03:17:12;;;;;;;23.83;4.17;;;;;;;-145.69;100.00;73070.25;5073719;28;20194;-78
2022/02/01 03:19:49;;;;;;;11.60;3.90;;;;;;;-145.69;100.00;73074.22;5073251;28;20337;-78
2022/02/01 03:22:19;;;;;;;9.67;3.33;;;;;;;-145.69;100.00;73074.22;5073707;28;20290;-78
2022/02/01 03:24:46;;;;;;;12.37;3.73;;;;;;;-145.69;100.00;73074.22;5073657;28;20569;-77
2022/02/01 03:27:15;;;;;;;12.43;3.30;;;;;;;-145.69;100.00;73070.25;5073445;28;20531;-77
2022/02/01 03:29:41;;;;;;;14.10;4.07;;;;;;;-145.69;100.00;73074.22;5073026;28;20236;-77
2022/02/01 03:32:09;;;;;;;16.30;4.73;;;;;;;-145.69;100.00;73070.25;5073143;28;20582;-77
2022/02/01 03:34:37;;;;;;;22.23;5.33;;;;;;;-145.69;100.00;73076.22;5073206;28;20187;-76
2022/02/01 03:37:05;;;;;;;17.23;4.47;;;;;;;-145.69;100.00;73078.22;5073072;28;20199;-77
2022/02/01 03:39:31;;;;;;;24.63;3.87;;;;;;;-145.69;100.00;73088.16;5072321;28;20222;-77
2022/02/01 03:41:58;;;;;;;19.53;4.23;;;;;;;-145.69;100.00;73090.16;5068812;28;20214;-77
2022/02/01 03:44:26;;;;;;;16.13;3.80;;;;;;;-145.69;100.00;73092.16;5073099;28;20199;-77
2022/02/01 03:47:01;;;;;;;10.47;3.73;;;;;;;-145.69;100.00;73090.16;5073228;28;20646;-77
2022/02/01 03:49:29;;;;;;;19.37;3.90;;;;;;;-145.69;100.00;73092.16;5073436;28;20202;-78
2022/02/01 03:51:58;;;;;;;21.20;3.70;;;;;;;-145.69;100.00;73106.09;5072910;28;20286;-78
2022/02/01 03:54:26;;;;;;;23.30;4.67;;;;;;;-145.69;100.00;73114.03;5073049;28;20670;-77
2022/02/01 03:56:52;;;;;;;25.93;3.83;;;;;;;-145.69;100.00;73108.06;5072896;28;20194;-78
2022/02/01 03:59:20;;;;;;;15.37;3.90;;;;;;;-145.69;100.00;73124.00;5072767;28;20219;-77
2022/02/01 04:01:48;;;;;;;14.63;3.50;;;;;;;-145.69;100.00;73127.97;5073143;28;20562;-78
2022/02/01 04:04:15;;;;;;;24.80;4.07;;;;;;;-145.69;100.00;73124.00;5073532;28;20210;-76
2022/02/01 04:06:41;;;;;;;27.10;4.10;;;;;;;-145.69;100.00;73129.97;5072980;28;20688;-77
2022/02/01 04:09:08;;;;;;;15.30;3.63;;;;;;;-145.69;100.00;73129.97;5073074;28;20241;-78
2022/02/01 04:11:34;;;;;;;22.00;3.77;;;;;;;-145.69;100.00;73126.00;5072856;28;20209;-77
2022/02/01 04:14:01;;;;;;;16.87;3.87;;;;;;;-145.69;100.00;73118.03;5072720;28;20195;-78
2022/02/01 04:16:27;;;;;;;18.13;3.40;;;;;;;-145.69;100.00;73133.94;5072866;28;20657;-77
2022/02/01 04:18:55;;;;;;;16.87;3.00;;;;;;;-145.69;100.00;73139.91;5068261;28;20265;-78
2022/02/01 04:21:21;;;;;;;21.90;3.77;;;;;;;-145.69;100.00;73137.94;5069880;28;20195;-77
2022/02/01 04:23:48;;;;;;;23.63;3.80;;;;;;;-145.69;100.00;73141.91;5072654;28;20649;-77
2022/02/01 04:26:14;;;;;;;23.67;3.70;;;;;;;-145.69;100.00;73143.91;5072867;28;20199;-77
2022/02/01 04:28:50;;;;;;;19.87;4.07;;;;;;;-145.69;100.00;73157.84;5072622;28;20202;-77
2022/02/01 04:31:17;;;;;;;22.07;3.90;;;;;;;-145.69;100.00;73157.84;5072216;28;20202;-77
2022/02/01 04:33:43;;;;;;;34.23;4.67;;;;;;;-145.69;100.00;73165.81;5072868;28;20605;-77
2022/02/01 04:36:12;;;;;;;16.63;3.67;;;;;;;-145.69;100.00;73175.75;5072512;28;20202;-77
2022/02/01 04:38:42;;;;;;;15.03;3.37;;;;;;;-145.69;100.00;73165.81;5072863;28;20662;-78
2022/02/01 04:41:09;;;;;;;17.30;3.77;;;;;;;-145.69;100.00;73171.78;5072554;28;20206;-77
2022/02/01 04:43:36;;;;;;;22.80;3.73;;;;;;;-145.69;100.00;73169.78;5071999;28;20191;-77
2022/02/01 04:46:08;;;;;;;13.77;3.80;;;;;;;-145.69;100.00;73185.72;5072869;28;20191;-77
2022/02/01 04:48:36;;;;;;;12.90;3.53;;;;;;;-145.69;100.00;73189.69;5072652;28;20206;-78
2022/02/01 04:51:06;;;;;;;18.23;3.53;;;;;;;-145.69;100.00;73185.72;5072192;28;20199;-78
2022/02/01 04:53:34;;;;;;;25.63;3.77;;;;;;;-145.69;100.00;73193.66;5072442;28;20194;-78
2022/02/01 04:56:00;;;;;;;12.90;3.07;;;;;;;-145.69;100.00;73201.63;5072796;28;20206;-77
2022/02/01 04:58:27;;;;;;;13.00;3.37;;;;;;;-145.69;100.00;73201.63;5072571;28;20195;-77
2022/02/01 05:00:55;;;;;;;16.77;3.60;;;;;;;-145.69;100.00;73191.69;5072107;28;20585;-77
2022/02/01 05:03:22;;;;;;;22.27;3.87;;;;;;;-145.69;100.00;73209.59;5072640;28;20585;-78
2022/02/01 05:05:49;;;;;;;16.97;3.00;;;;;;;-145.69;100.00;73217.56;5074553;28;20219;-78
2022/02/01 05:08:16;;;;;;;27.23;3.53;;;;;;;-145.69;100.00;73215.56;5075996;28;20741;-78
2022/02/01 05:10:44;;;;;;;23.37;3.50;;;;;;;-145.69;100.00;73215.56;5075976;28;20203;-78
2022/02/01 05:13:45;;;;;;;18.03;3.07;;;;;;;-145.69;100.00;73217.56;5076224;28;20197;-77
2022/02/01 05:16:17;;;;;;;20.00;4.03;;;;;;;-145.69;100.00;73233.50;5076084;28;20214;-78
2022/02/01 05:18:46;;;;;;;20.17;2.73;;;;;;;-145.69;100.00;73225.53;5075418;28;20289;-79
2022/02/01 05:21:20;;;;;;;23.90;3.10;;;;;;;-145.69;100.00;73235.47;5075739;28;20244;-78
2022/02/01 05:23:47;;;;;;;13.57;3.77;;;;;;;-145.69;100.00;73241.44;5075621;28;20214;-78
2022/02/01 05:26:15;;;;;;;16.47;3.40;;;;;;;-145.69;100.00;73241.44;5075597;28;20195;-78
2022/02/01 05:28:42;;;;;;;16.20;3.10;;;;;;;-145.69;100.00;73237.47;5075749;28;20553;-78
2022/02/01 05:31:10;;;;;;;15.57;3.33;;;;;;;-145.69;100.00;73241.44;5075434;28;20285;-77
2022/02/01 05:33:36;;;;;;;16.00;2.83;;;;;;;-145.69;100.00;73243.44;5075885;28;20569;-78
2022/02/01 05:36:05;;;;;;;16.90;2.30;;;;;;;-145.69;100.00;73249.41;5058866;28;20206;-78
2022/02/01 05:38:31;;;;;;;20.83;3.17;;;;;;;-145.69;100.00;73259.38;5075492;28;20214;-78
2022/02/01 05:40:58;;;;;;;18.63;2.47;;;;;;;-145.69;100.00;73259.38;5074649;28;20218;-78
2022/02/01 05:43:27;;;;;;;10.37;2.77;;;;;;;-145.69;100.00;73265.34;5075280;28;20676;-78
2022/02/01 05:45:56;;;;;;;11.47;2.90;;;;;;;-145.69;100.00;73271.31;5075276;28;20221;-78
2022/02/01 05:48:24;;;;;;;21.97;3.37;;;;;;;-145.69;100.00;73269.31;5075249;28;20674;-78
2022/02/01 05:50:53;;;;;;;18.10;3.77;;;;;;;-145.69;100.00;73275.28;5074811;28;20286;-77
2022/02/01 05:53:19;;;;;;;18.83;2.87;;;;;;;-145.69;100.00;73275.28;5059365;28;20221;-78
2022/02/01 05:55:47;;;;;;;17.37;3.17;;;;;;;-145.69;100.00;73281.25;5075195;28;20203;-78
2022/02/01 05:58:14;;;;;;;18.70;3.00;;;;;;;-145.69;100.00;73293.22;5074490;28;20249;-77
2022/02/01 06:00:43;;;;;;;10.83;2.50;;;;;;;-145.69;100.00;73297.19;5075111;28;20219;-77
2022/02/01 06:03:10;;;;;;;15.97;3.23;;;;;;;-145.69;100.00;73295.19;5074868;28;20202;-76
2022/02/01 06:05:36;;;;;;;11.90;2.60;;;;;;;-145.69;100.00;73291.22;5075093;28;20202;-77
2022/02/01 06:08:04;;;;;;;22.87;3.43;;;;;;;-145.69;100.00;73293.22;5075060;28;20649;-77
2022/02/01 06:10:30;;;;;;;23.87;3.60;;;;;;;-145.69;100.00;73291.22;5074842;28;20202;-77
2022/02/01 06:12:57;;;;;;;20.07;3.63;;;;;;;-145.69;100.00;73299.19;5075054;28;20724;-77
2022/02/01 06:15:25;;;;;;;21.33;3.23;;;;;;;-145.69;100.00;73299.19;5074856;28;20312;-77
2022/02/01 06:17:53;;;;;;;13.33;3.13;;;;;;;-145.69;100.00;73303.16;5074470;28;20554;-76
2022/02/01 06:20:23;;;;;;;23.27;3.30;;;;;;;-145.69;100.00;73311.13;5074691;28;20223;-77
2022/02/01 06:22:50;;;;;;;16.77;2.70;;;;;;;-145.69;100.00;73309.13;5074524;28;20202;-76
2022/02/01 06:25:21;;;;;;;23.67;3.50;;;;;;;-145.69;100.00;73303.16;5069719;28;20203;-77
2022/02/01 06:27:48;;;;;;;21.13;3.03;;;;;;;-145.69;100.00;73317.09;5054766;28;20290;-76
2022/02/01 06:30:15;;;;;;;14.30;2.77;;;;;;;-145.69;100.00;73309.13;5062184;28;20550;-77
2022/02/01 06:32:42;;;;;;;17.33;3.07;;;;;;;-145.69;100.00;73313.13;5074447;28;20596;-77
2022/02/01 06:35:10;;;;;;;15.50;3.97;;;;;;;-145.69;100.00;73323.06;5074618;28;20205;-77
2022/02/01 06:37:37;;;;;;;25.00;3.73;;;;;;;-145.69;100.00;73333.03;5074090;28;20209;-77
2022/02/01 06:40:05;;;;;;;16.43;3.27;;;;;;;-145.69;100.00;73321.09;5074257;28;20222;-76
2022/02/01 06:42:33;;;;;;;25.83;3.80;;;;;;;-145.69;100.00;73313.13;5074406;28;20195;-76
2022/02/01 06:44:59;;;;;;;22.77;3.93;;;;;;;-145.69;100.00;73327.06;5074575;28;20543;-77
2022/02/01 06:47:26;;;;;;;23.67;3.40;;;;;;;-145.69;100.00;73344.97;5074395;28;20195;-77
2022/02/01 06:49:52;;;;;;;27.47;3.17;;;;;;;-145.69;100.00;73337.00;5074326;28;20214;-76
2022/02/01 06:52:20;;;;;;;12.47;2.97;;;;;;;-145.69;100.00;73348.97;5074090;28;20715;-77
2022/02/01 06:54:46;;;;;;;24.97;4.77;;;;;;;-145.69;100.00;73348.97;5073957;28;20665;-77
2022/02/01 06:57:13;;;;;;;17.50;3.27;;;;;;;-145.69;100.00;73352.94;5073497;28;20674;-77
2022/02/01 06:59:40;;;;;;;24.00;4.37;;;;;;;-145.69;100.00;73360.91;5073830;28;20206;-77
2022/02/01 07:02:07;;;;;;;20.00;4.13;;;;;;;-145.69;100.00;73364.88;5073611;28;20198;-77
2022/02/01 07:04:34;;;;;;;20.90;3.27;;;;;;;-145.69;100.00;73370.84;5073739;28;20194;-77
2022/02/01 07:07:03;;;;;;;19.23;3.77;;;;;;;-145.69;100.00;73368.88;5073362;28;20195;-76
2022/02/01 07:09:33;;;;;;;22.37;4.03;;;;;;;-145.69;100.00;73366.88;5073872;28;20198;-76
2022/02/01 07:11:59;;;;;;;23.63;4.70;;;;;;;-145.69;100.00;73370.84;5073348;28;20561;-77
2022/02/01 07:14:26;;;;;;;15.77;4.27;;;;;;;-145.69;100.00;73366.88;5073754;28;20221;-77
2022/02/01 07:16:52;;;;;;;15.70;3.70;;;;;;;-145.69;100.00;73368.88;5073127;28;20195;-77
2022/02/01 07:19:19;;;;;;;16.17;3.63;;;;;;;-145.69;100.00;73368.88;5072703;28;20231;-77
2022/02/01 07:21:48;;;;;;;25.00;4.87;;;;;;;-145.69;100.00;73382.81;5073295;28;20215;-77
2022/02/01 07:24:17;;;;;;;23.57;3.87;;;;;;;-145.69;100.00;73384.78;5073545;28;20293;-77
2022/02/01 07:26:54;;;;;;;37.33;4.80;;;;;;;-145.69;100.00;73384.78;5073124;28;20194;-77
2022/02/01 07:29:21;;;;;;;25.17;4.90;;;;;;;-145.69;100.00;73400.72;5072740;28;20198;-77
2022/02/01 07:31:47;;;;;;;22.57;4.83;;;;;;;-145.69;100.00;73402.72;5072973;28;20206;-77
2022/02/01 07:34:16;;;;;;;21.73;5.20;;;;;;;-145.69;100.00;73388.78;5074014;28;20191;-77
2022/02/01 07:36:45;;;;;;;15.53;4.27;;;;;;;-145.69;100.00;73380.81;5073309;28;20194;-77
2022/02/01 07:39:14;;;;;;;21.13;5.00;;;;;;;-145.69;100.00;73392.75;5073413;28;20207;-78
2022/02/01 07:41:40;;;;;;;24.30;4.73;;;;;;;-145.69;100.00;73396.72;5056659;28;20222;-76
2022/02/01 07:44:09;;;;;;;15.30;3.63;;;;;;;-145.69;100.00;73394.75;5073192;28;20244;-76
2022/02/01 07:46:36;;;;;;;27.47;4.20;;;;;;;-145.69;100.00;73388.78;5072688;28;20195;-77
2022/02/01 07:49:03;;;;;;;19.27;4.30;;;;;;;-145.69;100.00;73386.78;5072754;28;20271;-77
2022/02/01 07:51:32;;;;;;;24.80;5.80;;;;;;;-145.69;100.00;73372.84;5071979;28;20442;-77
2022/02/01 07:54:01;;;;;;;27.63;4.60;;;;;;;-145.69;100.00;73374.84;5073225;28;20545;-77
2022/02/01 07:56:30;;;;;;;18.50;3.83;;;;;;;-145.69;100.00;73380.81;5073059;28;20206;-77
2022/02/01 07:58:56;;;;;;;16.93;4.00;;;;;;;-145.69;100.00;73386.78;5072633;28;20202;-77
2022/02/01 08:01:27;;;;;;;18.63;3.67;;;;;;;-145.69;100.00;73390.75;5072641;28;20355;-77
2022/02/01 08:03:54;;;;;;;17.27;3.43;;;;;;;-145.69;100.00;73382.81;5073204;28;20198;-77
2022/02/01 08:06:22;;;;;;;17.63;3.60;;;;;;;-145.69;100.00;73368.88;5072901;28;20611;-76
2022/02/01 08:08:51;;;;;;;16.80;4.20;;;;;;;-145.69;100.00;73362.88;5072792;28;20195;-77
2022/02/01 08:11:18;;;;;;;18.70;3.73;;;;;;;-145.69;100.00;73352.94;5072611;28;20195;-76
2022/02/01 08:19:23;;;;;;;17.80;4.60;;;;;;;-145.69;100.00;73301.19;5072313;28;20233;-77
2022/02/01 08:21:52;;;;;;;16.87;2.97;;;;;;;-145.69;100.00;73289.22;5071014;28;20214;-76
2022/02/01 08:24:20;;;;;;;25.40;3.17;;;;;;;-145.69;100.00;73275.28;5072266;28;20187;-76
2022/02/01 08:26:47;;;;;;;12.30;2.70;;;;;;;-145.69;100.00;73281.25;5072741;28;20217;-76
2022/02/01 08:29:15;;;;;;;11.63;3.07;;;;;;;-145.69;100.00;73291.22;5072848;28;20198;-76
2022/02/01 08:31:42;;;;;;;19.57;3.97;;;;;;;-145.69;100.00;73281.25;5072835;28;20586;-76
2022/02/01 08:34:11;;;;;;;14.48;3.90;;;;;;;-145.69;100.00;73285.25;5071801;28;20487;-76
2022/02/01 08:36:38;;;;;;;21.43;4.53;;;;;;;-145.69;100.00;73293.22;5072538;28;20233;-76
2022/02/01 08:39:08;;;;;;;18.47;4.77;;;;;;;-145.69;100.00;73301.19;5072710;28;20201;-76
2022/02/01 08:41:37;;;;;;;11.60;3.30;;;;;;;-145.69;100.00;73297.19;5076083;28;20218;-76
2022/02/01 08:44:09;;;;;;;17.67;2.77;;;;;;;-145.69;100.00;73307.16;5076429;28;20665;-75
2022/02/01 08:46:36;;;;;;;5.43;2.10;;;;;;;-145.69;100.00;73299.19;5076459;28;20209;-75
2022/02/01 08:49:07;;;;;;;17.03;3.53;;;;;;;-145.69;100.00;73325.06;5076478;28;20194;-75
2022/02/01 08:51:39;;;;;;;11.40;2.97;;;;;;;-145.69;100.00;73331.03;5076162;28;20206;-76
2022/02/01 08:54:17;;;;;;;11.63;2.77;;;;;;;-145.69;100.00;73337.00;5076597;28;20289;-75
2022/02/01 08:59:29;;;;;;;8.30;2.73;;;;;;;-145.69;100.00;73295.19;5076217;28;20198;-77
2022/02/01 09:01:57;;;;;;;18.07;3.27;;;;;;;-145.69;100.00;73273.31;5076378;28;20227;-76
2022/02/01 09:04:28;;;;;;;9.00;2.90;;;;;;;-145.69;100.00;73301.19;5076448;28;20203;-75
2022/02/01 09:06:54;;;;;;;19.13;5.73;;;;;;;-145.69;100.00;73291.22;5075844;28;20194;-75
2022/02/01 09:09:22;;;;;;;20.13;4.73;;;;;;;-145.69;100.00;73273.31;5076078;28;20206;-76
2022/02/01 09:11:50;;;;;;;15.83;2.60;;;;;;;-145.69;100.00;73289.22;5076100;28;20650;-76
2022/02/01 09:14:19;;;;;;;13.20;2.70;;;;;;;-145.69;100.00;73279.28;5075890;28;20198;-76
2022/02/01 09:16:49;;;;;;;13.20;3.23;;;;;;;-145.69;100.00;73285.25;5075676;28;20202;-76
2022/02/01 09:19:16;;;;;;;8.27;2.00;;;;;;;-145.69;100.00;73285.25;5075726;28;20581;-76
2022/02/01 09:21:47;;;;;;;14.17;2.30;;;;;;;-145.69;100.00;73309.13;5075809;28;20272;-75
2022/02/01 09:24:14;;;;;;;12.87;2.17;;;;;;;-145.69;100.00;73305.16;5075887;28;20217;-76
2022/02/01 09:26:42;;;;;;;11.27;2.40;;;;;;;-145.69;100.00;73311.13;5075781;28;20294;-75
2022/02/01 09:29:15;;;;;;;5.20;2.10;;;;;;;-145.69;100.00;73297.19;5075722;28;20668;-76
2022/02/01 09:31:41;;;;;;;7.17;1.57;;;;;;;-145.69;100.00;73289.22;5075897;28;20209;-75
2022/02/01 09:34:08;;;;;;;7.83;2.03;;;;;;;-145.69;100.00;73297.19;5075234;28;20604;-76
2022/02/01 09:36:35;;;;;;;5.70;2.10;;;;;;;-145.69;100.00;73323.06;5075683;28;20205;-76
2022/02/01 09:39:05;;;;;;;12.20;2.43;;;;;;;-145.69;100.00;73317.09;5075074;28;20199;-76
2022/02/01 09:41:33;;;;;;;10.00;3.30;;;;;;;-145.69;100.00;73299.19;5075434;28;20230;-77
2022/02/01 09:44:02;;;;;;;19.27;2.73;;;;;;;-145.69;100.00;73267.34;5075626;28;20203;-75
2022/02/01 09:46:32;;;;;;;13.40;3.03;;;;;;;-145.69;100.00;73263.34;5075661;28;20598;-76
2022/02/01 09:49:00;;;;;;;5.33;2.20;;;;;;;-145.69;100.00;73257.38;5075392;28;20292;-75
2022/02/01 09:51:28;;;;;;;8.50;2.00;;;;;;;-145.69;100.00;73257.38;5074660;28;20202;-75
2022/02/01 09:53:54;;;;;;;9.83;3.00;;;;;;;-145.69;100.00;73261.34;5075578;28;20281;-76
2022/02/01 09:56:23;;;;;;;9.13;2.60;;;;;;;-145.69;100.00;73249.41;5075387;28;20249;-75
2022/02/01 09:58:54;;;;;;;6.77;1.70;;;;;;;-145.69;100.00;73257.38;5075099;28;20203;-76
2022/02/01 10:01:25;;;;;;;6.00;2.33;;;;;;;-145.69;100.00;73247.41;5075008;28;20233;-75
2022/02/01 10:04:00;;;;;;;8.00;2.57;;;;;;;-145.69;100.00;73257.38;5074979;28;20230;-75
2022/02/01 10:06:33;;;;;;;11.53;4.23;;;;;;;-145.69;100.00;73225.53;5074519;28;20226;-75
2022/02/01 10:09:06;;;;;;;8.80;2.10;;;;;;;-145.69;100.00;73215.56;5074976;28;20531;-75
2022/02/01 10:11:41;;;;;;;10.90;2.57;;;;;;;-145.69;100.00;73201.63;5075078;28;20198;-75
2022/02/01 10:14:09;;;;;;;5.43;2.43;;;;;;;-145.69;100.00;73205.63;5072246;28;20205;-75
2022/02/01 10:16:48;;;;;;;15.40;2.77;;;;;;;-145.69;100.00;73189.69;5074870;28;20241;-75
2022/02/01 10:19:18;;;;;;;7.37;2.00;;;;;;;-145.69;100.00;73211.59;5074446;28;20262;-75
2022/02/01 10:21:50;;;;;;;6.77;2.27;;;;;;;-145.69;100.00;73245.44;5074762;28;20696;-75
2022/02/01 10:24:28;;;;;;;7.83;2.07;;;;;;;-145.69;100.00;73237.47;5068800;28;20202;-76
2022/02/01 10:27:05;;;;;;;6.87;1.53;;;;;;;-145.69;100.00;73237.47;5054505;28;20203;-76
2022/02/01 10:29:33;;;;;;;11.10;1.93;;;;;;;-145.69;100.00;73219.56;5065047;28;20565;-75
2022/02/01 10:32:02;;;;;;;7.30;1.73;;;;;;;-145.69;100.00;73199.66;5060779;28;20204;-75
2022/02/01 10:34:40;;;;;;;7.73;2.00;;;;;;;-145.69;100.00;73205.63;5054119;28;20207;-75
2022/02/01 10:37:20;;;;;;;5.77;1.80;;;;;;;-145.69;100.00;73177.75;5060059;28;20281;-75
2022/02/01 10:39:48;;;;;;;7.33;1.93;;;;;;;-145.69;100.00;73177.75;5074527;28;20199;-74
2022/02/01 10:42:21;;;;;;;9.97;2.37;;;;;;;-145.69;100.00;73189.69;5073926;28;20233;-75
2022/02/01 10:44:50;;;;;;;3.57;1.73;;;;;;;-145.69;100.00;73191.69;5074319;28;20301;-74
2022/02/01 10:47:33;;;;;;;5.27;1.87;;;;;;;-145.69;100.00;73165.81;5074498;28;20645;-75
2022/02/01 10:50:08;;;;;;;2.83;1.33;;;;;;;-145.69;100.00;73173.75;5074015;28;20213;-75
2022/02/01 10:52:36;;;;;;;3.23;1.37;;;;;;;-145.69;100.00;73177.75;5074271;28;20194;-75
2022/02/01 10:55:05;;;;;;;11.47;1.67;;;;;;;-145.69;100.00;73169.78;5073979;28;20211;-75
2022/02/01 10:57:40;;;;;;;8.03;1.57;;;;;;;-145.69;100.00;73175.75;5074070;28;20195;-74
2022/02/01 11:00:12;;;;;;;5.33;1.40;;;;;;;-145.69;100.00;73183.72;5073856;28;20205;-74
2022/02/01 11:02:43;;;;;;;4.70;1.50;;;;;;;-145.69;100.00;73199.66;5073295;28;20237;-76
2022/02/01 11:05:10;;;;;;;4.70;1.00;;;;;;;-145.69;100.00;73213.56;5073801;28;20195;-76
2022/02/01 11:07:37;;;;;;;8.83;1.30;;;;;;;-145.69;100.00;73197.66;5073977;28;20202;-76
2022/02/01 11:10:08;;;;;;;12.73;1.70;;;;;;;-145.69;100.00;73197.66;5073852;28;20673;-76
2022/02/01 11:12:37;;;;;;;8.97;1.97;;;;;;;-145.69;100.00;73185.72;5073496;28;20205;-77
2022/02/01 11:15:17;;;;;;;6.10;1.70;;;;;;;-145.69;100.00;73167.78;5073711;28;20211;-77
2022/02/01 11:17:44;;;;;;;9.43;1.70;;;;;;;-145.69;100.00;73177.75;5073832;28;20211;-78
2022/02/01 11:20:12;;;;;;;7.83;2.60;;;;;;;-145.69;100.00;73165.81;5073555;28;20226;-77
2022/02/01 11:22:42;;;;;;;8.13;1.60;;;;;;;-145.69;100.00;73157.84;5073625;28;20234;-77
2022/02/01 11:25:20;;;;;;;3.77;1.67;;;;;;;-145.69;100.00;73159.84;5073781;28;20226;-77
2022/02/01 11:27:59;;;;;;;7.13;1.95;;;;;;;-145.69;100.00;73157.84;5073387;28;20529;-77
2022/02/01 11:30:34;;;;;;;9.97;1.67;;;;;;;-145.69;100.00;73131.97;5073625;28;20207;-77
2022/02/01 11:33:02;;;;;;;6.70;1.80;;;;;;;-145.69;100.00;73104.09;5072970;28;20226;-77
2022/02/01 11:35:30;;;;;;;5.20;1.53;;;;;;;-145.69;100.00;73127.97;5073393;28;20209;-77
2022/02/01 11:38:09;;;;;;;7.10;1.53;;;;;;;-145.69;100.00;73127.97;5073303;28;20206;-77
2022/02/01 11:40:38;;;;;;;6.60;1.50;;;;;;;-145.69;100.00;73145.91;5073224;28;20264;-77
2022/02/01 11:43:09;;;;;;;6.70;1.60;;;;;;;-145.69;100.00;73139.91;5072953;28;20226;-77
2022/02/01 11:45:41;;;;;;;4.93;1.60;;;;;;;-145.69;100.00;73143.91;5073328;28;20554;-77
2022/02/01 11:48:24;;;;;;;6.83;1.53;;;;;;;-145.69;100.00;73133.94;5072981;28;20210;-76
2022/02/01 11:50:53;;;;;;;10.43;1.73;;;;;;;-145.69;100.00;73110.06;5073262;28;20202;-77
2022/02/01 11:53:23;;;;;;;10.07;1.97;;;;;;;-145.69;100.00;73092.16;5073212;28;20203;-77
2022/02/01 11:55:52;;;;;;;11.60;2.03;;;;;;;-145.69;100.00;73082.19;5073215;28;20214;-75
2022/02/01 11:58:32;;;;;;;8.73;1.60;;;;;;;-145.69;100.00;73090.16;5073009;28;20199;-76
2022/02/01 12:01:03;;;;;;;5.60;1.60;;;;;;;-145.69;100.00;73066.25;5073224;28;20616;-75
2022/02/01 12:03:32;;;;;;;6.97;1.63;;;;;;;-145.69;97.95;73044.38;5072948;28;20214;-76
2022/02/01 12:06:05;;;;;;;9.90;1.90;;;;;;;-145.69;98.48;73070.25;5073159;28;20402;-75
2022/02/01 12:08:33;;;;;;;4.23;1.30;;;;;;;-145.69;97.11;73090.16;5072793;28;20256;-74
2022/02/01 12:11:04;;;;;;;9.23;2.15;;;;;;;-145.69;95.93;73074.22;5071907;28;20445;-78
2022/02/01 12:13:37;;;;;;;7.90;2.00;;;;;;;-145.69;97.09;73074.22;5072902;28;20199;-75